Boswell, Canada
Current Conditions -  °F | °C
As of 12:00 PM on Tuesday 27 Jan 2015 (Local Time) from CYCG Reporting Station
Haze Haze  
Wind Chill: 34°   Ceiling: 400
Heat Index: 34°   Visibility: 3mi
Dew Point: 34°   Wind: 2mph
Humidity: 100%   Direction: NA
Pressure: 30.02"   Gusts: NA
Location:  49.47°N, 116.77°W
Report Text: CYCG 272000Z VRB02KT 3SM BR OVC004 01/01 A3002 RMK ST8 SLP185
Loading
Personal Weather Stations






























Interactive Weather Map New forecast layout! Learn more

10-Day Weather Forecast

Advertisements
Track Severe Weather on mobile